Time;durP1;ratioP1;P1;durP2;ratioP2;P2;SDS_P1;SDS_P2;PMS_P1;PMS_P2;Temp;Humidity;BMP_temperature;BMP_pressure;BME280_temperature;BME280_humidity;BME280_pressure;Samples;Min_cycle;Max_cycle;Signal;HPM_P1;HPM_P2
2021/03/07 00:00:09;;;;;;;10.57;7.53;;;6.10;99.90;;;;;;5032816;28;20192;-79
2021/03/07 00:02:35;;;;;;;9.38;6.88;;;6.00;99.90;;;;;;5033676;28;20673;-81
2021/03/07 00:05:01;;;;;;;10.40;7.00;;;6.00;99.90;;;;;;5031563;28;20614;-80
2021/03/07 00:07:27;;;;;;;10.07;6.95;;;6.00;99.90;;;;;;5018038;28;20283;-80
2021/03/07 00:09:53;;;;;;;8.50;7.05;;;6.00;99.90;;;;;;5030906;28;20227;-82
2021/03/07 00:12:20;;;;;;;12.05;7.68;;;6.00;99.90;;;;;;5015225;28;20254;-80
2021/03/07 00:14:46;;;;;;;8.07;6.65;;;6.00;99.90;;;;;;5032156;28;20570;-80
2021/03/07 00:17:13;;;;;;;8.38;6.03;;;6.00;99.90;;;;;;5023206;28;20199;-82
2021/03/07 00:19:39;;;;;;;8.70;7.63;;;6.00;99.90;;;;;;5025622;28;20220;-81
2021/03/07 00:22:05;;;;;;;9.63;7.25;;;6.00;99.90;;;;;;5032146;28;20224;-81
2021/03/07 00:24:31;;;;;;;9.00;6.70;;;5.90;99.90;;;;;;5012891;28;20232;-82
2021/03/07 00:26:58;;;;;;;8.35;7.45;;;5.90;99.90;;;;;;5013248;28;20224;-85
2021/03/07 00:29:25;;;;;;;9.38;6.95;;;5.90;99.90;;;;;;5031687;28;20218;-81
2021/03/07 00:31:51;;;;;;;8.88;6.50;;;5.90;99.90;;;;;;5027502;28;20216;-80
2021/03/07 00:34:18;;;;;;;8.05;7.05;;;5.90;99.90;;;;;;5020714;28;20203;-80
2021/03/07 00:36:44;;;;;;;10.00;6.68;;;5.90;99.90;;;;;;5020820;28;20224;-79
2021/03/07 00:39:11;;;;;;;8.98;7.15;;;5.90;99.90;;;;;;5023446;28;20219;-80
2021/03/07 00:41:37;;;;;;;10.55;7.20;;;5.90;99.90;;;;;;5022509;28;20215;-79
2021/03/07 00:44:05;;;;;;;6.93;6.22;;;5.90;99.90;;;;;;5031144;28;20259;-79
2021/03/07 00:46:31;;;;;;;14.13;6.32;;;5.90;99.90;;;;;;5030595;28;20215;-81
2021/03/07 00:48:57;;;;;;;7.82;6.30;;;6.00;99.90;;;;;;5030413;28;20216;-80
2021/03/07 00:51:24;;;;;;;7.72;6.72;;;5.80;99.90;;;;;;5004352;28;20306;-80
2021/03/07 00:53:51;;;;;;;7.25;5.22;;;5.80;99.90;;;;;;5012369;28;20590;-81
2021/03/07 00:56:17;;;;;;;7.45;5.88;;;5.80;99.90;;;;;;5020561;28;20278;-81
2021/03/07 00:58:44;;;;;;;9.77;6.53;;;5.80;99.90;;;;;;5038255;28;20214;-79
2021/03/07 01:01:10;;;;;;;6.70;5.72;;;5.80;99.90;;;;;;5032442;28;20582;-81
2021/03/07 01:03:36;;;;;;;10.50;6.45;;;5.70;99.90;;;;;;5012455;28;20223;-81
2021/03/07 01:06:03;;;;;;;7.68;6.57;;;5.70;99.90;;;;;;5024062;28;20670;-83
2021/03/07 01:08:30;;;;;;;9.68;6.70;;;5.70;99.90;;;;;;5024718;28;20227;-83
2021/03/07 01:10:57;;;;;;;8.40;6.18;;;5.70;99.90;;;;;;5032245;28;20215;-83
2021/03/07 01:13:24;;;;;;;8.70;6.68;;;5.70;99.90;;;;;;5017768;28;20220;-83
2021/03/07 01:15:50;;;;;;;7.22;5.75;;;5.70;99.90;;;;;;5013088;28;20197;-83
2021/03/07 01:18:16;;;;;;;8.43;7.10;;;5.70;99.90;;;;;;5022396;28;20383;-81
2021/03/07 01:20:45;;;;;;;7.55;6.85;;;5.70;99.90;;;;;;5021066;28;20220;-81
2021/03/07 01:23:12;;;;;;;8.07;7.28;;;5.70;99.90;;;;;;5011705;28;20250;-80
2021/03/07 01:25:39;;;;;;;9.05;6.43;;;5.70;99.90;;;;;;5011758;28;20216;-80
2021/03/07 01:28:06;;;;;;;6.57;5.88;;;5.60;99.90;;;;;;5022887;28;20231;-80
2021/03/07 01:30:35;;;;;;;8.13;6.70;;;5.70;99.90;;;;;;5020756;28;20223;-80
2021/03/07 01:33:02;;;;;;;8.98;6.50;;;5.60;99.90;;;;;;5017091;28;20208;-80
2021/03/07 01:35:29;;;;;;;7.40;6.13;;;5.70;99.90;;;;;;5012587;28;20224;-80
2021/03/07 01:37:55;;;;;;;7.22;5.95;;;5.60;99.90;;;;;;5029369;28;20211;-80
2021/03/07 01:40:23;;;;;;;7.80;6.43;;;5.60;99.90;;;;;;5031890;28;20709;-80
2021/03/07 01:42:52;;;;;;;9.18;6.03;;;5.60;99.90;;;;;;5021308;28;20223;-80
2021/03/07 01:45:19;;;;;;;9.90;6.72;;;5.60;99.90;;;;;;5031425;28;20252;-81
2021/03/07 01:47:48;;;;;;;10.35;6.60;;;5.60;99.90;;;;;;5020676;28;20231;-80
2021/03/07 01:50:18;;;;;;;9.10;7.07;;;5.60;99.90;;;;;;5030983;28;20228;-80
2021/03/07 01:52:44;;;;;;;7.18;6.38;;;5.60;99.90;;;;;;5025728;28;20212;-80
2021/03/07 01:55:11;;;;;;;8.85;7.40;;;5.60;99.90;;;;;;5010540;28;20211;-81
2021/03/07 01:57:38;;;;;;;9.25;6.50;;;5.60;99.90;;;;;;5018393;28;20222;-81
2021/03/07 02:00:08;;;;;;;7.32;5.32;;;5.50;99.90;;;;;;5028028;28;20226;-80
2021/03/07 02:02:34;;;;;;;7.10;6.40;;;5.50;99.90;;;;;;5030965;28;20246;-80
2021/03/07 02:05:00;;;;;;;10.00;8.20;;;5.50;99.90;;;;;;5027905;28;20196;-80
2021/03/07 02:07:27;;;;;;;10.13;6.28;;;5.50;99.90;;;;;;5030209;28;20223;-80
2021/03/07 02:09:53;;;;;;;6.15;5.43;;;5.50;99.90;;;;;;5011249;28;20235;-81
2021/03/07 02:12:22;;;;;;;6.82;5.90;;;5.50;99.90;;;;;;5010776;28;20272;-80
2021/03/07 02:14:51;;;;;;;6.72;6.00;;;5.50;99.90;;;;;;5019779;28;20202;-82
2021/03/07 02:17:18;;;;;;;10.25;5.65;;;5.50;99.90;;;;;;5031245;28;20215;-81
2021/03/07 02:19:46;;;;;;;6.22;5.60;;;5.50;99.90;;;;;;5030897;28;20234;-82
2021/03/07 02:22:17;;;;;;;8.70;5.85;;;5.50;99.90;;;;;;5029957;28;20211;-81
2021/03/07 02:24:44;;;;;;;8.48;5.63;;;5.50;99.90;;;;;;5029889;28;20207;-81
2021/03/07 02:27:10;;;;;;;7.25;6.05;;;5.60;99.90;;;;;;5030439;28;20235;-81
2021/03/07 02:29:37;;;;;;;7.10;5.53;;;5.50;99.90;;;;;;5030316;28;20207;-81
2021/03/07 02:32:07;;;;;;;7.43;6.45;;;5.40;99.90;;;;;;5022851;28;20239;-82
2021/03/07 02:34:36;;;;;;;8.23;5.80;;;5.40;99.90;;;;;;5030768;28;20224;-83
2021/03/07 02:37:03;;;;;;;6.47;5.13;;;5.40;99.90;;;;;;5017210;28;20224;-82
2021/03/07 02:39:33;;;;;;;9.90;6.50;;;5.30;99.90;;;;;;5041196;28;20195;-82
2021/03/07 02:42:03;;;;;;;7.68;5.85;;;5.40;99.90;;;;;;5049736;28;20222;-83
2021/03/07 02:44:32;;;;;;;6.38;5.30;;;5.40;99.90;;;;;;5010625;28;20699;-82
2021/03/07 02:47:00;;;;;;;9.32;5.80;;;5.50;99.90;;;;;;5018950;28;20227;-82
2021/03/07 02:49:27;;;;;;;8.02;5.13;;;5.40;99.90;;;;;;5029177;28;20231;-82
2021/03/07 02:51:55;;;;;;;5.88;5.35;;;5.40;99.90;;;;;;5023974;28;20306;-82
2021/03/07 02:54:24;;;;;;;9.43;5.32;;;5.40;99.90;;;;;;5010700;28;20196;-82
2021/03/07 02:56:53;;;;;;;9.20;5.65;;;5.40;99.90;;;;;;5010766;28;20204;-82
2021/03/07 02:59:21;;;;;;;6.47;5.82;;;5.40;99.90;;;;;;5024307;28;20231;-82
2021/03/07 03:01:52;;;;;;;6.25;5.00;;;5.30;99.90;;;;;;5029908;28;20693;-81
2021/03/07 03:04:19;;;;;;;6.13;5.57;;;5.40;99.90;;;;;;5025747;28;20196;-82
2021/03/07 03:06:46;;;;;;;7.75;5.25;;;5.30;99.90;;;;;;5029813;28;20238;-81
2021/03/07 03:09:13;;;;;;;7.90;5.10;;;5.30;99.90;;;;;;5023583;28;20579;-80
2021/03/07 03:11:41;;;;;;;5.10;4.70;;;5.30;99.90;;;;;;5014192;28;20204;-80
2021/03/07 03:14:09;;;;;;;6.43;5.72;;;5.30;99.90;;;;;;5014352;28;20200;-80
2021/03/07 03:16:37;;;;;;;8.23;4.78;;;5.20;99.90;;;;;;5019336;28;20215;-80
2021/03/07 03:19:07;;;;;;;7.25;5.82;;;5.30;99.90;;;;;;5033541;28;20215;-81
2021/03/07 03:21:33;;;;;;;6.35;4.35;;;5.30;99.90;;;;;;5032584;28;20219;-80
2021/03/07 03:24:00;;;;;;;7.32;5.65;;;5.30;99.90;;;;;;5023610;28;20204;-83
2021/03/07 03:26:28;;;;;;;7.05;5.00;;;5.30;99.90;;;;;;5015486;28;20219;-80
2021/03/07 03:28:56;;;;;;;10.90;6.75;;;5.30;99.90;;;;;;5027286;28;20212;-80
2021/03/07 03:31:23;;;;;;;8.45;5.80;;;5.30;99.90;;;;;;5033235;28;20226;-79
2021/03/07 03:33:50;;;;;;;7.75;5.03;;;5.30;99.90;;;;;;5017111;28;20220;-80
2021/03/07 03:36:17;;;;;;;9.25;5.80;;;5.20;99.90;;;;;;5016402;28;20231;-80
2021/03/07 03:38:46;;;;;;;6.35;5.25;;;5.20;99.90;;;;;;5031364;28;20273;-80
2021/03/07 03:41:16;;;;;;;7.07;5.85;;;5.20;99.90;;;;;;5033071;28;20215;-81
2021/03/07 03:43:44;;;;;;;5.97;5.25;;;5.20;99.90;;;;;;5028652;28;20200;-82
2021/03/07 03:46:11;;;;;;;5.10;4.60;;;5.20;99.90;;;;;;5032072;28;20230;-80
2021/03/07 03:48:40;;;;;;;6.97;5.78;;;5.20;99.90;;;;;;5033120;28;20729;-80
2021/03/07 03:51:09;;;;;;;7.32;6.53;;;5.20;99.90;;;;;;5024172;28;20223;-79
2021/03/07 03:53:38;;;;;;;7.30;5.85;;;5.20;99.90;;;;;;5016962;28;20212;-80
2021/03/07 03:56:05;;;;;;;6.65;6.00;;;5.20;99.90;;;;;;5022846;28;20210;-81
2021/03/07 03:58:41;;;;;;;6.53;5.82;;;5.10;99.90;;;;;;5033385;28;20234;-80
2021/03/07 04:01:09;;;;;;;7.68;6.60;;;5.10;99.90;;;;;;5025321;28;20245;-80
2021/03/07 04:03:37;;;;;;;6.72;5.55;;;5.20;99.90;;;;;;5033747;28;20195;-80
2021/03/07 04:06:04;;;;;;;5.35;4.85;;;5.10;99.90;;;;;;5028776;28;20220;-80
2021/03/07 04:08:31;;;;;;;6.95;6.05;;;5.10;99.90;;;;;;5028822;28;20227;-80
2021/03/07 04:10:58;;;;;;;7.20;5.38;;;5.10;99.90;;;;;;5038450;28;20187;-80
2021/03/07 04:13:26;;;;;;;6.80;5.88;;;5.10;99.90;;;;;;5053118;28;20206;-81
2021/03/07 04:15:53;;;;;;;6.97;5.95;;;5.10;99.90;;;;;;5023867;28;20733;-80
2021/03/07 04:18:22;;;;;;;6.55;5.95;;;5.10;99.90;;;;;;5018680;28;20219;-80
2021/03/07 04:20:48;;;;;;;7.75;5.80;;;5.10;99.90;;;;;;5032733;28;20714;-80
2021/03/07 04:23:15;;;;;;;7.35;6.45;;;5.10;99.90;;;;;;5032818;28;20277;-80
2021/03/07 04:25:42;;;;;;;8.40;6.03;;;5.10;99.90;;;;;;5015707;28;20225;-80
2021/03/07 04:28:10;;;;;;;7.38;5.75;;;5.00;99.90;;;;;;5018496;28;20215;-80
2021/03/07 04:30:37;;;;;;;7.40;6.28;;;5.00;99.90;;;;;;5031975;28;20215;-80
2021/03/07 04:33:04;;;;;;;6.82;5.93;;;5.00;99.90;;;;;;5021530;28;20266;-80
2021/03/07 04:35:31;;;;;;;7.13;6.05;;;5.00;99.90;;;;;;5016162;28;20211;-80
2021/03/07 04:37:58;;;;;;;8.70;6.72;;;5.00;99.90;;;;;;5016148;28;20204;-80
2021/03/07 04:40:24;;;;;;;7.80;6.68;;;4.90;99.90;;;;;;5032392;28;20226;-81
2021/03/07 04:42:52;;;;;;;8.25;7.40;;;5.00;99.90;;;;;;5031503;28;20251;-81
2021/03/07 04:45:19;;;;;;;8.48;6.05;;;5.00;99.90;;;;;;5032039;28;20219;-81
2021/03/07 04:47:46;;;;;;;8.70;6.75;;;4.90;99.90;;;;;;5031510;28;20215;-80
2021/03/07 04:50:13;;;;;;;7.28;6.15;;;5.00;99.90;;;;;;5025640;28;20231;-82
2021/03/07 04:52:40;;;;;;;7.55;6.80;;;5.00;99.90;;;;;;5032159;28;20610;-80
2021/03/07 04:55:08;;;;;;;7.18;6.45;;;4.90;99.90;;;;;;5019683;28;20223;-80
2021/03/07 04:57:35;;;;;;;7.00;6.22;;;4.90;99.90;;;;;;5012081;28;20219;-80
2021/03/07 05:00:05;;;;;;;8.52;6.82;;;4.90;99.90;;;;;;5027457;28;20188;-80
2021/03/07 05:02:32;;;;;;;9.07;7.53;;;4.90;99.90;;;;;;5011462;28;20196;-80
2021/03/07 05:04:58;;;;;;;7.63;5.95;;;4.90;99.90;;;;;;5029060;28;20208;-80
2021/03/07 05:07:24;;;;;;;9.65;7.13;;;4.90;99.90;;;;;;5011745;28;20235;-80
2021/03/07 05:09:50;;;;;;;8.70;7.30;;;4.90;99.90;;;;;;5020827;28;20824;-80
2021/03/07 05:12:16;;;;;;;7.80;6.90;;;4.80;99.90;;;;;;5023625;28;20243;-80
2021/03/07 05:14:43;;;;;;;7.65;6.63;;;4.80;99.90;;;;;;5014590;28;20773;-81
2021/03/07 05:17:10;;;;;;;7.72;6.93;;;4.80;99.90;;;;;;5011911;28;20224;-80
2021/03/07 05:19:36;;;;;;;9.43;6.30;;;4.80;99.90;;;;;;5013680;28;20228;-80
2021/03/07 05:22:02;;;;;;;6.95;6.28;;;4.80;99.90;;;;;;5011876;28;20584;-80
2021/03/07 05:24:28;;;;;;;7.22;6.10;;;4.80;99.90;;;;;;5011803;28;20228;-81
2021/03/07 05:26:55;;;;;;;8.55;7.65;;;4.80;99.90;;;;;;5012341;28;20634;-80
2021/03/07 05:29:21;;;;;;;10.35;7.32;;;4.80;99.90;;;;;;5011424;28;20220;-81
2021/03/07 05:31:47;;;;;;;9.77;8.13;;;4.70;99.90;;;;;;5030444;28;20223;-80
2021/03/07 05:34:14;;;;;;;8.10;7.13;;;4.80;99.90;;;;;;5030880;28;20297;-82
2021/03/07 05:36:40;;;;;;;9.20;7.50;;;4.70;99.90;;;;;;5011579;28;20200;-82
2021/03/07 05:39:06;;;;;;;7.75;7.03;;;4.70;99.90;;;;;;5024157;28;20668;-82
2021/03/07 05:41:33;;;;;;;7.57;6.63;;;4.70;99.90;;;;;;5031274;28;20219;-82
2021/03/07 05:43:59;;;;;;;9.23;7.25;;;4.70;99.90;;;;;;5021535;28;20876;-83
2021/03/07 05:46:25;;;;;;;13.60;8.18;;;4.70;99.90;;;;;;5013489;28;20200;-81
2021/03/07 05:48:52;;;;;;;8.52;7.63;;;4.70;99.90;;;;;;5030459;28;20227;-82
2021/03/07 05:51:19;;;;;;;8.57;7.65;;;4.70;99.90;;;;;;5030330;28;20231;-82
2021/03/07 05:53:48;;;;;;;8.95;7.85;;;4.70;99.90;;;;;;5031028;28;20215;-81
2021/03/07 05:56:15;;;;;;;9.90;7.22;;;4.70;99.90;;;;;;5027905;28;20215;-81
2021/03/07 05:58:42;;;;;;;9.65;8.10;;;4.70;99.90;;;;;;5030793;28;20593;-80
2021/03/07 06:01:08;;;;;;;9.75;7.53;;;4.70;99.90;;;;;;5030646;28;20192;-82
2021/03/07 06:03:34;;;;;;;7.75;6.95;;;4.70;99.90;;;;;;5024541;28;20212;-82
2021/03/07 06:06:00;;;;;;;12.30;7.95;;;4.70;99.90;;;;;;5017582;28;20230;-81
2021/03/07 06:08:27;;;;;;;9.15;7.43;;;4.70;99.90;;;;;;5022663;28;20224;-81
2021/03/07 06:10:54;;;;;;;10.10;7.00;;;4.70;99.90;;;;;;5031079;28;20211;-82
2021/03/07 06:13:20;;;;;;;11.60;7.15;;;4.70;99.90;;;;;;5022604;28;20216;-82
2021/03/07 06:15:48;;;;;;;8.35;7.50;;;4.70;99.90;;;;;;5011110;28;20228;-82
2021/03/07 06:18:16;;;;;;;8.52;7.60;;;4.70;99.90;;;;;;5024831;28;20214;-83
2021/03/07 06:20:43;;;;;;;8.40;7.50;;;4.70;99.90;;;;;;5029816;28;20192;-83
2021/03/07 06:23:10;;;;;;;9.73;8.05;;;4.70;99.90;;;;;;5030060;28;20207;-81
2021/03/07 06:25:46;;;;;;;8.43;7.38;;;4.70;99.90;;;;;;5026865;28;20253;-80
2021/03/07 06:28:21;;;;;;;9.93;8.15;;;4.60;99.90;;;;;;5013307;28;20322;-80
2021/03/07 06:30:47;;;;;;;8.80;7.38;;;4.60;99.90;;;;;;5029590;28;20223;-80
2021/03/07 06:33:28;;;;;;;14.25;9.10;;;4.70;99.90;;;;;;5021924;28;20269;-81
2021/03/07 06:36:14;;;;;;;7.85;6.95;;;4.60;99.90;;;;;;5016049;28;20196;-80
2021/03/07 06:38:44;;;;;;;10.18;7.63;;;4.60;99.90;;;;;;5024860;28;20276;-81
2021/03/07 06:41:16;;;;;;;11.93;8.18;;;4.70;99.90;;;;;;5017697;28;20251;-82
2021/03/07 06:43:42;;;;;;;6.75;6.00;;;4.60;99.90;;;;;;5011158;28;20216;-82
2021/03/07 06:46:26;;;;;;;10.80;7.30;;;4.70;99.90;;;;;;5018054;28;20215;-82
2021/03/07 06:48:53;;;;;;;8.07;7.20;;;4.60;99.90;;;;;;5029683;28;20242;-83
2021/03/07 06:51:26;;;;;;;9.10;7.57;;;4.60;99.90;;;;;;5029330;28;20231;-83
2021/03/07 06:53:52;;;;;;;9.93;7.75;;;4.60;99.90;;;;;;5010790;28;20220;-83
2021/03/07 06:56:39;;;;;;;11.30;8.95;;;4.70;99.90;;;;;;5026079;28;20314;-83
2021/03/07 06:59:09;;;;;;;11.68;8.10;;;4.70;99.90;;;;;;5029888;28;20191;-83
2021/03/07 07:01:39;;;;;;;9.93;7.75;;;4.70;99.90;;;;;;5030042;28;20241;-81
2021/03/07 07:04:05;;;;;;;11.57;8.07;;;4.70;99.90;;;;;;5020504;28;20219;-84
2021/03/07 07:06:32;;;;;;;16.30;9.88;;;4.70;99.90;;;;;;5020997;28;20200;-81
2021/03/07 07:09:00;;;;;;;13.05;9.02;;;4.60;99.90;;;;;;5029525;28;20247;-82
2021/03/07 07:11:26;;;;;;;12.52;8.38;;;4.60;99.90;;;;;;5022421;28;20220;-81
2021/03/07 07:13:53;;;;;;;10.25;7.97;;;4.60;99.90;;;;;;5020844;28;20207;-81
2021/03/07 07:16:20;;;;;;;12.35;8.60;;;4.70;99.90;;;;;;5027985;28;20219;-81
2021/03/07 07:18:49;;;;;;;11.05;7.95;;;4.80;99.90;;;;;;5029059;28;20203;-81
2021/03/07 07:21:17;;;;;;;10.38;7.55;;;4.90;99.90;;;;;;5010270;28;20220;-82
2021/03/07 07:23:46;;;;;;;10.35;7.93;;;5.00;99.90;;;;;;5010740;28;20223;-81
2021/03/07 07:26:13;;;;;;;8.73;7.85;;;5.20;99.90;;;;;;5019789;28;20220;-81
2021/03/07 07:28:39;;;;;;;9.82;8.73;;;5.40;99.90;;;;;;5017561;28;20227;-80
2021/03/07 07:31:11;;;;;;;12.60;8.57;;;5.50;99.90;;;;;;5028931;28;20223;-81
2021/03/07 07:33:44;;;;;;;9.52;8.55;;;5.70;99.90;;;;;;5029165;28;20230;-80
2021/03/07 07:36:18;;;;;;;11.60;8.88;;;5.90;99.90;;;;;;5011256;28;20254;-80
2021/03/07 07:38:45;;;;;;;10.35;8.88;;;6.00;99.90;;;;;;5010237;28;20269;-81
2021/03/07 07:41:28;;;;;;;12.60;9.88;;;6.10;99.90;;;;;;5009956;28;20251;-81
2021/03/07 07:43:55;;;;;;;9.18;8.27;;;6.10;99.90;;;;;;5009928;28;20200;-80
2021/03/07 07:46:22;;;;;;;10.32;8.38;;;6.20;99.90;;;;;;5021525;28;20200;-80
2021/03/07 07:48:48;;;;;;;8.25;7.13;;;6.20;99.90;;;;;;5028866;28;20216;-81
2021/03/07 07:51:36;;;;;;;11.18;8.65;;;6.20;99.90;;;;;;5022437;28;20232;-80
2021/03/07 07:54:03;;;;;;;10.73;9.23;;;6.30;99.90;;;;;;5021930;28;20770;-81
2021/03/07 07:56:34;;;;;;;9.10;8.25;;;6.30;99.90;;;;;;5032811;28;20559;-81
2021/03/07 07:59:00;;;;;;;11.00;8.50;;;6.40;99.90;;;;;;5021471;28;20204;-80
2021/03/07 08:01:53;;;;;;;15.50;8.90;;;6.50;99.90;;;;;;5013672;28;20664;-83
2021/03/07 08:04:36;;;;;;;10.40;8.63;;;6.50;99.90;;;;;;5004916;28;20216;-83
2021/03/07 08:07:04;;;;;;;8.90;7.43;;;6.60;99.90;;;;;;5024464;28;20659;-82
2021/03/07 08:09:36;;;;;;;9.95;8.27;;;6.70;99.90;;;;;;5014086;28;20220;-83
2021/03/07 08:12:35;;;;;;;8.20;7.40;;;6.80;99.90;;;;;;5014377;28;20220;-83
2021/03/07 08:15:02;;;;;;;9.60;7.43;;;6.80;99.90;;;;;;5014493;28;20274;-80
2021/03/07 08:17:54;;;;;;;9.25;8.23;;;6.90;99.90;;;;;;5013681;28;20695;-83
2021/03/07 08:20:54;;;;;;;9.75;7.97;;;7.00;99.90;;;;;;5006548;28;20280;-82
2021/03/07 08:23:21;;;;;;;10.10;7.95;;;7.00;99.80;;;;;;5026668;28;20200;-81
2021/03/07 08:26:01;;;;;;;9.02;7.88;;;7.10;99.70;;;;;;5032307;28;20208;-82
2021/03/07 08:28:37;;;;;;;9.00;7.55;;;7.10;99.70;;;;;;5033200;28;20230;-82
2021/03/07 08:31:05;;;;;;;8.68;7.05;;;7.00;99.90;;;;;;5030904;28;20222;-82
2021/03/07 08:33:33;;;;;;;9.00;6.90;;;6.70;99.90;;;;;;5022250;28;20613;-81
2021/03/07 08:36:11;;;;;;;9.60;7.75;;;6.60;99.90;;;;;;5033293;28;20210;-82
2021/03/07 08:38:38;;;;;;;8.98;8.05;;;6.40;99.90;;;;;;5031615;28;20223;-82
2021/03/07 08:41:05;;;;;;;9.23;8.05;;;6.40;99.90;;;;;;5013553;28;20717;-83
2021/03/07 08:43:52;;;;;;;9.43;7.82;;;6.40;99.90;;;;;;5017431;28;20215;-83
2021/03/07 08:46:21;;;;;;;11.18;8.38;;;6.50;99.90;;;;;;5024319;28;20547;-83
2021/03/07 08:48:50;;;;;;;11.77;8.30;;;6.50;99.90;;;;;;5012234;28;20223;-84
2021/03/07 08:51:18;;;;;;;8.63;7.82;;;6.50;99.90;;;;;;5012435;28;20308;-83
2021/03/07 08:53:45;;;;;;;9.55;7.38;;;6.40;99.90;;;;;;5031834;28;20207;-83
2021/03/07 08:56:13;;;;;;;12.82;8.35;;;6.40;99.90;;;;;;5027218;28;20193;-83
2021/03/07 08:58:39;;;;;;;9.55;8.38;;;6.40;99.90;;;;;;5012504;28;20765;-83
2021/03/07 09:01:07;;;;;;;9.98;8.00;;;6.30;99.90;;;;;;5027097;28;20697;-83
2021/03/07 09:03:33;;;;;;;9.43;7.93;;;6.30;99.90;;;;;;5024878;28;20203;-83
2021/03/07 09:06:08;;;;;;;10.77;8.40;;;6.30;99.90;;;;;;5029876;28;20248;-82
2021/03/07 09:08:34;;;;;;;9.40;8.10;;;6.30;99.90;;;;;;5021477;28;20234;-83
2021/03/07 09:11:02;;;;;;;8.18;7.35;;;6.30;99.90;;;;;;5031880;28;20662;-83
2021/03/07 09:13:29;;;;;;;9.52;7.82;;;6.20;99.90;;;;;;5021024;28;20409;-83
2021/03/07 09:15:57;;;;;;;10.18;7.43;;;6.20;99.90;;;;;;5012233;28;20667;-83
2021/03/07 09:18:27;;;;;;;9.45;8.20;;;6.20;99.90;;;;;;5026009;28;20216;-82
2021/03/07 09:20:56;;;;;;;7.60;6.80;;;6.20;99.90;;;;;;5032102;28;20220;-82
2021/03/07 09:23:33;;;;;;;8.95;7.65;;;6.10;99.90;;;;;;5032355;28;20223;-84
2021/03/07 09:26:00;;;;;;;8.85;6.70;;;5.90;99.90;;;;;;5023851;28;20212;-82
2021/03/07 09:28:32;;;;;;;7.97;6.53;;;5.80;99.90;;;;;;5032025;28;20608;-82
2021/03/07 09:31:00;;;;;;;7.85;7.15;;;5.80;99.90;;;;;;5028514;28;20203;-81
2021/03/07 09:33:26;;;;;;;9.27;7.20;;;5.70;99.90;;;;;;5031862;28;20332;-81
2021/03/07 09:36:11;;;;;;;7.70;6.93;;;5.70;99.90;;;;;;5032071;28;20211;-80
2021/03/07 09:38:57;;;;;;;9.43;7.10;;;5.80;99.90;;;;;;5028436;28;20299;-80
2021/03/07 09:41:32;;;;;;;8.90;8.00;;;5.70;99.90;;;;;;5031733;28;20547;-80
2021/03/07 09:44:00;;;;;;;9.93;6.10;;;5.70;99.90;;;;;;5031399;28;20183;-81
2021/03/07 09:46:27;;;;;;;7.57;6.53;;;5.80;99.90;;;;;;5031138;28;20196;-81
2021/03/07 09:48:56;;;;;;;6.68;5.95;;;5.70;99.90;;;;;;5027275;28;20262;-80
2021/03/07 09:51:23;;;;;;;9.77;6.60;;;5.70;99.90;;;;;;5030240;28;20242;-80
2021/03/07 09:53:49;;;;;;;8.57;5.95;;;5.70;99.90;;;;;;5012550;28;20212;-81
2021/03/07 09:56:25;;;;;;;5.75;5.15;;;5.80;99.90;;;;;;5029988;28;20192;-81
2021/03/07 09:58:52;;;;;;;7.65;5.60;;;5.80;99.90;;;;;;5028973;28;20578;-82
2021/03/07 10:01:19;;;;;;;7.45;5.10;;;5.90;99.90;;;;;;5031325;28;20211;-83
2021/03/07 10:03:45;;;;;;;6.05;5.22;;;6.10;99.90;;;;;;5030985;28;20242;-82
2021/03/07 10:06:15;;;;;;;4.93;4.30;;;6.20;99.90;;;;;;5036661;28;20211;-84
2021/03/07 10:08:42;;;;;;;5.55;4.93;;;6.20;99.90;;;;;;5027667;28;20690;-85
2021/03/07 10:11:20;;;;;;;6.85;5.78;;;6.20;99.90;;;;;;5031738;28;20215;-83
2021/03/07 10:13:58;;;;;;;5.60;4.80;;;6.30;99.90;;;;;;5015371;28;20216;-87
2021/03/07 10:16:27;;;;;;;4.85;4.25;;;6.30;99.90;;;;;;5013595;28;20242;-86
2021/03/07 10:19:14;;;;;;;4.88;4.43;;;6.30;99.90;;;;;;5032687;28;20247;-86
2021/03/07 10:21:42;;;;;;;6.40;5.75;;;6.30;99.90;;;;;;5009737;28;20246;-85
2021/03/07 10:24:10;;;;;;;5.20;4.80;;;6.20;99.90;;;;;;5013874;28;20769;-86
2021/03/07 10:26:37;;;;;;;5.13;4.40;;;6.30;99.90;;;;;;5031215;28;20212;-86
2021/03/07 10:29:26;;;;;;;5.18;4.20;;;6.30;99.90;;;;;;5052057;28;20222;-85
2021/03/07 10:32:01;;;;;;;7.30;4.50;;;6.30;99.90;;;;;;5033966;28;20219;-85
2021/03/07 10:34:34;;;;;;;5.22;4.72;;;6.30;99.90;;;;;;5032780;28;20192;-87
2021/03/07 10:37:01;;;;;;;6.93;5.28;;;6.30;99.90;;;;;;5033482;28;20207;-86
2021/03/07 10:39:27;;;;;;;4.65;4.20;;;6.40;99.90;;;;;;5033238;28;20223;-85
2021/03/07 10:42:08;;;;;;;6.40;5.15;;;6.50;99.90;;;;;;5033382;28;20289;-85
2021/03/07 10:44:36;;;;;;;4.47;3.70;;;6.60;99.90;;;;;;5032981;28;20199;-87
2021/03/07 10:47:19;;;;;;;3.50;3.20;;;6.60;99.90;;;;;;5034022;28;20234;-87
2021/03/07 10:49:48;;;;;;;5.10;3.95;;;6.60;99.90;;;;;;5013875;28;20239;-86
2021/03/07 10:52:14;;;;;;;4.15;3.75;;;6.60;99.90;;;;;;5020778;28;20566;-86
2021/03/07 10:54:41;;;;;;;4.60;3.80;;;6.50;99.90;;;;;;5033542;28;20195;-85
2021/03/07 10:57:09;;;;;;;5.55;3.78;;;6.40;99.90;;;;;;5032928;28;20208;-85
2021/03/07 10:59:36;;;;;;;4.38;3.40;;;6.50;99.90;;;;;;5016593;28;20278;-87
2021/03/07 11:02:05;;;;;;;4.70;3.55;;;6.40;99.90;;;;;;5025992;28;20192;-86
2021/03/07 11:04:31;;;;;;;4.68;3.00;;;6.30;99.90;;;;;;5030589;28;20199;-85
2021/03/07 11:06:58;;;;;;;3.45;3.15;;;6.30;99.90;;;;;;5021807;28;20581;-86
2021/03/07 11:09:24;;;;;;;5.10;3.13;;;6.30;99.90;;;;;;5014193;28;20266;-87
2021/03/07 11:11:50;;;;;;;5.35;4.85;;;6.30;99.90;;;;;;5013784;28;20215;-85
2021/03/07 11:14:16;;;;;;;3.00;2.70;;;6.40;99.90;;;;;;5013827;28;20200;-85
2021/03/07 11:16:43;;;;;;;4.25;3.20;;;6.40;99.90;;;;;;5033469;28;20222;-86
2021/03/07 11:19:09;;;;;;;4.05;2.72;;;6.40;99.90;;;;;;5033845;28;20223;-85
2021/03/07 11:21:36;;;;;;;4.57;3.03;;;6.50;99.90;;;;;;5030690;28;20219;-87
2021/03/07 11:24:03;;;;;;;3.78;3.42;;;6.50;99.90;;;;;;5033752;28;20218;-85
2021/03/07 11:26:29;;;;;;;4.10;3.05;;;6.50;99.90;;;;;;5034938;28;20216;-88
2021/03/07 11:28:55;;;;;;;8.05;2.60;;;6.50;99.90;;;;;;5038798;28;20223;-87
2021/03/07 11:31:22;;;;;;;4.88;3.20;;;6.60;99.90;;;;;;5037985;28;20245;-87
2021/03/07 11:33:49;;;;;;;2.85;2.30;;;6.60;99.90;;;;;;5029343;28;20192;-87
2021/03/07 11:36:15;;;;;;;5.97;2.88;;;6.70;99.90;;;;;;5036257;28;20239;-89
2021/03/07 11:38:42;;;;;;;4.00;2.90;;;6.70;99.90;;;;;;5032108;28;20208;-88
2021/03/07 11:41:08;;;;;;;3.85;2.33;;;6.80;99.90;;;;;;5035968;28;20215;-87
2021/03/07 11:43:35;;;;;;;3.13;2.55;;;6.80;99.90;;;;;;5012668;28;20196;-87
2021/03/07 11:46:01;;;;;;;3.45;2.60;;;6.80;99.90;;;;;;5031655;28;20253;-84
2021/03/07 11:48:28;;;;;;;2.83;2.47;;;6.90;99.90;;;;;;5034969;28;20219;-84
2021/03/07 11:50:55;;;;;;;2.88;2.50;;;6.90;99.90;;;;;;5026023;28;20235;-85
2021/03/07 11:53:21;;;;;;;2.97;2.67;;;6.90;99.90;;;;;;5035811;28;20192;-85
2021/03/07 11:55:47;;;;;;;3.05;2.75;;;7.00;99.90;;;;;;5028513;28;20211;-84
2021/03/07 11:58:13;;;;;;;3.10;2.80;;;7.00;99.90;;;;;;5035897;28;20655;-85
2021/03/07 12:00:40;;;;;;;2.30;2.03;;;7.00;99.90;;;;;;5027171;28;20876;-86
2021/03/07 12:03:06;;;;;;;2.33;2.13;;;7.00;99.90;;;;;;5031851;28;20191;-85
2021/03/07 12:05:32;;;;;;;5.00;2.80;;;7.00;99.90;;;;;;5031286;28;20230;-85
2021/03/07 12:07:59;;;;;;;2.70;2.30;;;7.00;99.90;;;;;;5015630;28;20979;-86
2021/03/07 12:10:26;;;;;;;4.53;2.65;;;7.00;99.90;;;;;;5025900;28;20220;-86
2021/03/07 12:12:52;;;;;;;2.92;2.28;;;7.00;99.90;;;;;;5021294;28;20218;-85
2021/03/07 12:15:18;;;;;;;6.18;2.35;;;7.10;99.90;;;;;;5034739;28;20220;-85
2021/03/07 12:17:45;;;;;;;2.08;1.85;;;7.20;99.90;;;;;;5023812;28;20224;-85
2021/03/07 12:20:12;;;;;;;2.45;2.25;;;7.20;99.90;;;;;;5030450;28;20200;-83
2021/03/07 12:22:38;;;;;;;2.40;2.20;;;7.20;99.90;;;;;;5014115;28;20675;-85
2021/03/07 12:25:07;;;;;;;2.22;2.03;;;7.20;99.90;;;;;;5029036;28;20231;-85
2021/03/07 12:27:34;;;;;;;2.65;1.95;;;7.20;99.90;;;;;;5035514;28;20223;-85
2021/03/07 12:30:00;;;;;;;2.80;2.55;;;7.20;99.90;;;;;;5034530;28;20215;-83
2021/03/07 12:32:27;;;;;;;2.63;2.33;;;7.20;99.90;;;;;;5034238;28;20195;-86
2021/03/07 12:34:53;;;;;;;2.30;1.65;;;7.30;99.90;;;;;;5034898;28;20219;-86
2021/03/07 12:37:19;;;;;;;3.17;2.20;;;7.30;99.90;;;;;;5035320;28;20242;-83
2021/03/07 12:39:45;;;;;;;2.05;1.80;;;7.30;99.90;;;;;;5022697;28;20220;-83
2021/03/07 12:42:13;;;;;;;1.60;1.50;;;7.30;99.90;;;;;;5026527;28;20204;-84
2021/03/07 12:44:39;;;;;;;3.75;1.55;;;7.30;99.80;;;;;;5029993;28;20206;-82
2021/03/07 12:47:05;;;;;;;2.50;2.10;;;7.30;99.70;;;;;;5029357;28;20207;-81
2021/03/07 12:49:32;;;;;;;1.55;1.45;;;7.40;99.40;;;;;;5032616;28;20235;-81
2021/03/07 12:51:58;;;;;;;3.17;2.00;;;7.40;99.60;;;;;;5029973;28;20188;-81
2021/03/07 12:54:24;;;;;;;3.67;1.73;;;7.40;99.60;;;;;;5032620;28;20270;-81
2021/03/07 12:56:50;;;;;;;1.98;1.88;;;7.40;99.80;;;;;;5032019;28;20563;-81
2021/03/07 12:59:17;;;;;;;2.45;1.90;;;7.40;99.50;;;;;;5026388;28;20227;-80
2021/03/07 13:01:44;;;;;;;2.53;2.15;;;7.50;99.80;;;;;;5027114;28;20207;-81